Kezdőlap
METAR-TAF:

METAR-TAF

Repülőterek :

Karacsi, Pakisztán

földrajzi szélesség: 24-54N, földrajzi hosszúság: 067-08E, magasság: 21 m

Jelenlegi meteorológiai megfigyelések

A jelentés 39 perccel ezelõtt készült, 21:30 UTC
Szélcsend
Hőmérséklet 19°C
Páratartalom 83%
Légköri nyomás 1015 hPa
Látótávolság: 6000 m
Szórványos felhőzet 10000 lábon

METAR: OPKC 182130Z 00000KT 6000 SCT100 19/16 Q1015 NOSIG

Idő: 03:09 (22:09 UTC)

Előrejelzés

A jelentés 3 órával és 39 perccel ezelõtt készült, 18:30 UTC
Az előrejelzés 18-én 21 óra UTC és 19-én 06 óra UTC között érvényes
Északkeleti szél 10 kt
Látótávolság: 5000 m
Kevés felhő 10000 lábon
Száraz légköri homály
19-én 00 óra UTC és 19-én 04 óra UTC között ideiglenes
Különbözõ irányokból fújó szél 3 kt
Látótávolság: 4000 m
Kevés felhő 10000 lábon
Száraz légköri homály

TAF: OPKC 181830Z 1821/1906 04010KT 5000 HZ FEW100 TEMPO 1900/1904 VRB03KT 4000 HZ FEW100

Meteorológiai megfigyelések és előrejelzések több, mint 4000 repülőtéren (METAR és TAF jelentéseket).

A térképen piros és sárga pontok jelzik az elérhető meteorológiai állomásokat.

Mozgassa az egeret a pont fölött, hogy megjelenjen az állomás neve.

Azután kattintson az időjárási megfigyelések és előrejelzések megtekintéséhez.

A térkép megváltoztatása: kattintson a fekete keresztel jelölt zöld gombra ráközelítéshez, a vonallal jelölt zöld gombra távolításhoz, vagy a zöld nyilakra a szomszédos térképek eléréséhez.


METAR-TAF: